Terminal Aerodrome Forecast
Issued by NWS

Home | Current Version | Previous Version | Text Only | Print | Product List | Glossary Off
Versions: 1 2 3 4 5 6 7 8 9 10 11 12 13 14 15 16 17 18 19 20 21 22 23 24 25 26

000
FTUS43 KLOT 271122
TAFORD
TAF
KORD 271122Z 2712/2818 01006KT 6SM BR SCT010 BKN035
      TEMPO 2712/2713 4SM BR
     FM271500 03009KT P6SM SCT020 BKN035
     FM272000 04012G19KT P6SM SCT025 BKN040
     FM280200 03010KT P6SM FEW040 BKN250
     FM281400 03012G19KT P6SM SCT030=

USA.gov is the U.S. government's official web portal to all federal, state and local government web resources and services.